Time;durP1;ratioP1;P1;durP2;ratioP2;P2;SDS_P1;SDS_P2;PMS_P1;PMS_P2;Temp;Humidity;BMP_temperature;BMP_pressure;BME280_temperature;BME280_humidity;BME280_pressure;Samples;Min_cycle;Max_cycle;Signal;HPM_P1;HPM_P2
2023/02/01 00:01:49;;;;;;;4.82;3.20;;;;;;;3.54;66.04;99450.53;4960092;28;20034;-95
2023/02/01 00:04:14;;;;;;;6.18;3.00;;;;;;;3.36;65.79;99427.38;4975522;28;20030;-96
2023/02/01 00:06:40;;;;;;;5.57;3.05;;;;;;;3.27;65.85;99427.88;4953820;28;20034;-96
2023/02/01 00:09:05;;;;;;;4.43;2.63;;;;;;;3.29;65.17;99439.91;4944621;28;20034;-95
2023/02/01 00:11:31;;;;;;;3.83;2.72;;;;;;;3.09;66.10;99431.28;4943893;28;20081;-96
2023/02/01 00:13:56;;;;;;;6.05;3.25;;;;;;;3.12;66.75;99436.19;4944972;28;20496;-95
2023/02/01 00:16:27;;;;;;;6.13;2.60;;;;;;;3.25;66.03;99444.03;4944799;28;20023;-96
2023/02/01 00:18:59;;;;;;;5.25;3.15;;;;;;;3.11;65.66;99416.75;4961646;28;20030;-95
2023/02/01 00:21:24;;;;;;;7.80;3.20;;;;;;;3.31;65.76;99443.19;4946024;28;20054;-96
2023/02/01 00:23:50;;;;;;;2.85;2.30;;;;;;;3.18;66.18;99433.47;4960354;28;20027;-95
2023/02/01 00:26:17;;;;;;;3.45;2.50;;;;;;;3.33;65.28;99442.97;4945309;28;20513;-96
2023/02/01 00:28:42;;;;;;;3.40;2.80;;;;;;;3.25;65.26;99436.06;4942676;28;20018;-96
2023/02/01 00:31:08;;;;;;;4.55;3.03;;;;;;;3.31;66.50;99439.72;4959605;28;20070;-96
2023/02/01 00:33:33;;;;;;;9.10;2.95;;;;;;;3.37;66.88;99449.47;4944329;28;20031;-96
2023/02/01 00:36:07;;;;;;;3.38;2.70;;;;;;;3.24;66.50;99423.81;4957867;28;20058;-96
2023/02/01 00:38:33;;;;;;;4.75;3.60;;;;;;;3.38;66.59;99446.59;4959952;28;20031;-95
2023/02/01 00:41:18;;;;;;;6.15;3.85;;;;;;;3.20;66.92;99433.25;4948960;28;20023;-96
2023/02/01 00:43:44;;;;;;;5.43;3.60;;;;;;;3.13;66.98;99412.00;4960095;28;20030;-96
2023/02/01 00:46:09;;;;;;;5.22;3.17;;;;;;;3.17;67.33;99418.53;4947958;28;20042;-95
2023/02/01 00:48:35;;;;;;;6.28;2.85;;;;;;;3.27;66.87;99423.34;4946857;28;20023;-95
2023/02/01 00:51:01;;;;;;;4.13;3.17;;;;;;;3.12;67.52;99420.25;4953563;28;20026;-94
2023/02/01 00:53:27;;;;;;;4.82;3.90;;;;;;;3.21;67.60;99430.34;4948751;28;20034;-94
2023/02/01 00:55:52;;;;;;;7.53;4.45;;;;;;;3.11;67.02;99419.41;4959735;28;20155;-94
2023/02/01 00:58:18;;;;;;;8.63;4.50;;;;;;;3.11;67.05;99421.25;4948127;28;20068;-95
2023/02/01 01:00:44;;;;;;;8.68;4.25;;;;;;;3.12;66.53;99414.91;4972563;28;20058;-94
2023/02/01 01:03:18;;;;;;;5.90;4.32;;;;;;;3.11;67.06;99422.06;4967791;28;20022;-94
2023/02/01 01:05:47;;;;;;;10.02;4.90;;;;;;;3.19;67.27;99429.75;4954383;28;20051;-94
2023/02/01 01:08:14;;;;;;;6.35;4.78;;;;;;;3.26;67.96;99435.03;4946377;28;20031;-95
2023/02/01 01:10:39;;;;;;;7.10;4.07;;;;;;;3.19;66.70;99405.81;4967464;28;20465;-96
2023/02/01 01:13:05;;;;;;;7.38;4.20;;;;;;;3.15;66.87;99404.63;4960841;28;20030;-96
2023/02/01 01:15:30;;;;;;;5.03;3.67;;;;;;;3.35;66.53;99422.28;4959240;28;20026;-96
2023/02/01 01:17:56;;;;;;;9.85;5.25;;;;;;;3.19;66.41;99415.66;4959923;28;20401;-96
2023/02/01 01:20:21;;;;;;;7.05;4.40;;;;;;;3.20;67.36;99423.44;4959801;28;20486;-96
2023/02/01 01:22:47;;;;;;;6.57;4.60;;;;;;;3.23;67.23;99414.19;4959858;28;20049;-95
2023/02/01 01:25:13;;;;;;;8.90;4.70;;;;;;;3.30;66.84;99425.59;4959791;28;20023;-96
2023/02/01 01:27:39;;;;;;;7.75;4.18;;;;;;;3.26;67.26;99407.59;4960292;28;20026;-96
2023/02/01 01:30:05;;;;;;;6.97;4.88;;;;;;;3.29;67.63;99420.50;4943978;28;20029;-96
2023/02/01 01:32:30;;;;;;;7.47;4.18;;;;;;;3.29;67.94;99429.28;4950273;28;20026;-95
2023/02/01 01:34:56;;;;;;;4.93;3.78;;;;;;;3.12;68.01;99404.28;4951952;28;20015;-96
2023/02/01 01:37:21;;;;;;;7.05;3.70;;;;;;;3.22;67.85;99420.56;4943834;28;20050;-95
2023/02/01 01:39:47;;;;;;;7.15;3.97;;;;;;;3.31;67.86;99427.22;4961538;28;20031;-96
2023/02/01 01:42:13;;;;;;;6.13;3.67;;;;;;;3.23;67.52;99414.19;4964625;28;20053;-96
2023/02/01 01:44:57;;;;;;;6.00;3.90;;;;;;;3.16;67.95;99424.91;4963508;28;20027;-96
2023/02/01 01:47:22;;;;;;;7.15;3.90;;;;;;;3.02;68.83;99407.41;4995803;28;20486;-95
2023/02/01 01:49:48;;;;;;;5.38;3.30;;;;;;;3.00;68.41;99414.81;4964367;28;20038;-95
2023/02/01 01:52:13;;;;;;;4.00;3.00;;;;;;;3.01;68.87;99417.25;4964032;28;20397;-95
2023/02/01 01:54:42;;;;;;;2.88;2.08;;;;;;;3.01;68.00;99406.63;4962774;28;20035;-96
2023/02/01 01:57:19;;;;;;;3.85;2.50;;;;;;;3.19;67.02;99439.59;4964657;28;20022;-95
2023/02/01 01:59:47;;;;;;;2.92;2.10;;;;;;;3.01;66.77;99422.56;4948530;28;20033;-96
2023/02/01 02:02:13;;;;;;;6.18;2.75;;;;;;;2.98;66.14;99430.16;4973372;28;20037;-95
2023/02/01 02:04:38;;;;;;;4.97;2.80;;;;;;;3.02;66.78;99418.88;4970543;28;20026;-95
2023/02/01 02:07:05;;;;;;;4.38;2.13;;;;;;;3.13;66.11;99429.84;4965200;28;20054;-95
2023/02/01 02:09:31;;;;;;;4.25;2.35;;;;;;;3.17;65.23;99423.84;4966617;28;20452;-95
2023/02/01 02:11:56;;;;;;;3.53;2.20;;;;;;;3.29;66.15;99439.13;4972735;28;20080;-95
2023/02/01 02:14:23;;;;;;;4.07;2.13;;;;;;;3.12;65.17;99418.38;4960338;28;20034;-95
2023/02/01 02:16:59;;;;;;;4.10;2.45;;;;;;;2.95;66.31;99427.97;4964361;28;20066;-95
2023/02/01 02:19:32;;;;;;;4.32;2.00;;;;;;;3.16;66.29;99440.84;4950774;28;20034;-95
2023/02/01 02:22:00;;;;;;;;;;;;;;;3.24;66.39;99451.22;4962933;28;20038;-95
2023/02/01 02:24:38;;;;;;;2.80;2.00;;;;;;;3.26;65.44;99455.50;4996109;28;20479;-95
2023/02/01 02:27:26;;;;;;;4.10;2.22;;;;;;;3.22;66.14;99455.94;4963646;28;20037;-94
2023/02/01 02:30:07;;;;;;;2.65;1.90;;;;;;;3.10;65.82;99440.91;4951122;28;20031;-95
2023/02/01 02:32:36;;;;;;;3.92;2.03;;;;;;;3.10;67.17;99459.53;4979273;28;20122;-95
2023/02/01 02:35:24;;;;;;;3.15;2.08;;;;;;;3.07;67.00;99457.31;4979535;28;20034;-96
2023/02/01 02:37:58;;;;;;;4.32;2.17;;;;;;;3.01;65.91;99443.03;4990902;28;20046;-96
2023/02/01 02:40:33;;;;;;;5.32;1.90;;;;;;;3.14;66.70;99464.19;4953700;28;20034;-95
2023/02/01 02:48:59;;;;;;;3.63;2.17;;;;;;;2.97;66.03;99463.13;4998048;28;20033;-95
2023/02/01 03:05:11;;;;;;;4.82;2.05;;;;;;;2.95;64.99;99462.53;4983659;28;20065;-95
2023/02/01 03:07:55;;;;;;;11.88;4.63;;;;;;;3.02;64.82;99473.91;4965374;28;20189;-95
2023/02/01 03:11:02;;;;;;;7.88;3.05;;;;;;;3.01;64.76;99470.44;4984163;28;20038;-96
2023/02/01 03:13:30;;;;;;;5.00;2.30;;;;;;;2.98;64.07;99470.88;4980248;28;20501;-95
2023/02/01 03:16:22;;;;;;;4.28;2.50;;;;;;;2.81;63.05;99456.47;4962240;28;20035;-95
2023/02/01 03:18:51;;;;;;;6.88;3.17;;;;;;;2.88;63.26;99443.94;4984131;28;20026;-94
2023/02/01 03:21:26;;;;;;;5.97;2.40;;;;;;;2.99;64.07;99458.41;4958892;28;20085;-95
2023/02/01 03:23:53;;;;;;;3.38;2.33;;;;;;;2.96;64.06;99453.50;4946569;28;20077;-95
2023/02/01 03:26:19;;;;;;;3.35;2.08;;;;;;;3.01;64.16;99464.31;4960249;28;20026;-96
2023/02/01 03:29:14;;;;;;;5.05;2.15;;;;;;;2.91;62.24;99454.16;4980930;28;20508;-96
2023/02/01 03:31:40;;;;;;;6.03;1.73;;;;;;;3.10;62.46;99484.28;4979829;28;20550;-96
2023/02/01 03:34:06;;;;;;;5.82;2.20;;;;;;;2.97;61.82;99455.97;4950549;28;20061;-95
2023/02/01 03:36:39;;;;;;;4.30;2.20;;;;;;;2.91;63.03;99456.00;4955480;28;20015;-96
2023/02/01 03:39:13;;;;;;;2.97;2.10;;;;;;;3.10;62.95;99481.63;4948453;28;20031;-96
2023/02/01 03:41:45;;;;;;;2.80;2.05;;;;;;;3.07;63.83;99483.91;4985511;28;20030;-95
2023/02/01 03:44:18;;;;;;;3.40;2.00;;;;;;;3.00;63.22;99489.28;4980985;28;20026;-96
2023/02/01 03:46:49;;;;;;;3.35;2.10;;;;;;;2.96;62.92;99475.59;4980535;28;20046;-96
2023/02/01 03:49:19;;;;;;;5.60;2.35;;;;;;;2.88;63.98;99454.56;4996140;28;20476;-96
2023/02/01 03:51:44;;;;;;;4.63;2.85;;;;;;;3.07;62.39;99482.03;4961262;28;20026;-95
2023/02/01 03:54:12;;;;;;;6.53;3.17;;;;;;;3.02;61.96;99457.97;4974443;28;20112;-95
2023/02/01 03:56:38;;;;;;;5.45;3.13;;;;;;;3.08;62.42;99472.25;4979889;28;20022;-96
2023/02/01 03:59:03;;;;;;;2.78;2.33;;;;;;;3.12;61.67;99465.47;4979908;28;20022;-95
2023/02/01 04:01:29;;;;;;;6.47;2.50;;;;;;;3.18;62.33;99481.38;4963589;28;20033;-95
2023/02/01 04:03:55;;;;;;;4.28;2.33;;;;;;;3.07;63.50;99479.38;4962551;28;20034;-95
2023/02/01 04:06:21;;;;;;;4.80;2.38;;;;;;;3.11;63.57;99479.78;4980787;28;20046;-96
2023/02/01 04:08:46;;;;;;;4.68;2.45;;;;;;;3.08;62.19;99464.25;4964152;28;20060;-95
2023/02/01 04:11:12;;;;;;;2.80;2.13;;;;;;;3.14;61.03;99482.81;4964232;28;20058;-96
2023/02/01 04:13:37;;;;;;;2.42;1.98;;;;;;;3.04;62.39;99467.34;4979796;28;20535;-95
2023/02/01 04:16:03;;;;;;;4.43;2.08;;;;;;;3.06;62.39;99456.50;4964196;28;20027;-95
2023/02/01 04:18:29;;;;;;;5.38;2.20;;;;;;;3.13;60.69;99459.09;4970267;28;20039;-95
2023/02/01 04:20:54;;;;;;;3.45;2.13;;;;;;;3.17;60.60;99470.94;4945395;28;20093;-94
2023/02/01 04:26:42;;;;;;;5.73;2.43;;;;;;;3.11;60.20;99482.44;4997622;28;20036;-95
2023/02/01 04:29:09;;;;;;;4.50;2.08;;;;;;;3.02;60.60;99482.72;4964529;28;20288;-94
2023/02/01 04:31:36;;;;;;;4.43;2.50;;;;;;;2.98;59.76;99467.41;4964378;28;20034;-95
2023/02/01 04:34:01;;;;;;;5.65;2.58;;;;;;;3.09;60.72;99473.84;4980837;28;20097;-94
2023/02/01 04:36:27;;;;;;;4.63;2.58;;;;;;;2.98;61.32;99481.50;4956422;28;20022;-95
2023/02/01 04:38:52;;;;;;;4.93;2.88;;;;;;;2.99;60.87;99475.16;4981467;28;20038;-94
2023/02/01 04:41:18;;;;;;;4.25;2.50;;;;;;;2.95;61.89;99458.00;4955872;28;20038;-94
2023/02/01 04:43:46;;;;;;;4.53;2.30;;;;;;;2.98;61.34;99483.34;4965617;28;20066;-94
2023/02/01 04:46:11;;;;;;;3.85;2.38;;;;;;;3.07;60.31;99495.34;4948107;28;20062;-95
2023/02/01 04:48:37;;;;;;;5.60;2.17;;;;;;;2.91;60.66;99459.47;4948292;28;20038;-96
2023/02/01 04:51:03;;;;;;;7.15;3.35;;;;;;;2.96;61.67;99493.41;4948192;28;20065;-95
2023/02/01 04:53:29;;;;;;;3.53;2.40;;;;;;;2.83;60.61;99473.03;4947293;28;20026;-95
2023/02/01 04:55:55;;;;;;;4.13;2.58;;;;;;;2.86;61.65;99485.09;4946799;28;20046;-96
2023/02/01 04:58:20;;;;;;;6.60;4.22;;;;;;;2.77;62.24;99466.72;4947473;28;20089;-96
2023/02/01 05:00:49;;;;;;;7.72;3.42;;;;;;;2.93;61.00;99478.69;4946864;28;20049;-95
2023/02/01 05:03:15;;;;;;;4.88;2.78;;;;;;;2.72;61.29;99479.88;4963803;28;20027;-96
2023/02/01 05:05:40;;;;;;;5.78;2.80;;;;;;;2.82;61.57;99479.38;4962119;28;20057;-95
2023/02/01 05:08:09;;;;;;;6.28;3.15;;;;;;;2.61;63.72;99476.06;4952164;28;20038;-96
2023/02/01 05:14:37;;;;;;;4.53;3.40;;;;;;;2.93;62.32;99505.28;4985179;28;20029;-96
2023/02/01 05:17:08;;;;;;;4.72;3.03;;;;;;;2.71;63.17;99493.34;4973114;28;20043;-96
2023/02/01 05:19:34;;;;;;;7.00;3.97;;;;;;;2.79;62.68;99499.22;4973351;28;20023;-96
2023/02/01 05:22:03;;;;;;;6.47;3.33;;;;;;;2.73;63.20;99478.81;4957722;28;20022;-96
2023/02/01 05:24:30;;;;;;;5.47;3.03;;;;;;;2.82;62.78;99490.84;4965794;28;20054;-96
2023/02/01 05:26:58;;;;;;;24.05;16.48;;;;;;;2.79;62.53;99488.59;4955625;29;20111;-96
2023/02/01 05:29:26;;;;;;;13.13;6.90;;;;;;;2.90;62.24;99497.72;4917064;29;20044;-96
2023/02/01 05:32:09;;;;;;;10.75;4.82;;;;;;;2.91;62.47;99501.22;4916912;29;20126;-96
2023/02/01 05:34:35;;;;;;;8.27;4.93;;;;;;;2.78;62.24;99496.78;4886090;29;20024;-96
2023/02/01 05:37:01;;;;;;;7.40;4.65;;;;;;;2.81;62.36;99494.50;4899367;29;20043;-96
2023/02/01 05:39:32;;;;;;;7.78;4.60;;;;;;;2.83;62.68;99502.28;4884644;29;20547;-96
2023/02/01 05:42:10;;;;;;;7.70;4.82;;;;;;;2.67;63.79;99494.81;4902140;29;20055;-96
2023/02/01 05:44:56;;;;;;;14.55;9.82;;;;;;;2.66;64.29;99496.66;4885496;29;20032;-96
2023/02/01 05:47:27;;;;;;;11.20;6.25;;;;;;;2.72;63.60;99519.75;4895591;29;20472;-96
2023/02/01 05:49:54;;;;;;;10.53;5.77;;;;;;;2.46;63.73;99496.78;4875127;29;20037;-96
2023/02/01 05:52:20;;;;;;;8.00;5.15;;;;;;;2.61;62.84;99497.31;4870165;29;20568;-96
2023/02/01 05:54:47;;;;;;;7.57;4.85;;;;;;;2.52;63.70;99497.78;4855331;29;20045;-96
2023/02/01 05:57:13;;;;;;;10.13;5.40;;;;;;;2.73;63.17;99529.34;4874607;29;20072;-95
2023/02/01 05:59:40;;;;;;;9.27;5.57;;;;;;;2.76;63.16;99536.91;4873629;29;20076;-91
2023/02/01 06:02:09;;;;;;;8.57;4.90;;;;;;;2.73;62.71;99509.91;4869779;29;20036;-89
2023/02/01 06:04:35;;;;;;;10.60;4.60;;;;;;;2.83;62.43;99523.56;4883764;29;20037;-91
2023/02/01 06:07:01;;;;;;;8.55;5.55;;;;;;;2.96;61.81;99530.63;4862824;29;20091;-90
2023/02/01 06:09:28;;;;;;;7.68;4.88;;;;;;;2.95;61.46;99526.34;4865278;29;20550;-88
2023/02/01 06:11:53;;;;;;;9.15;4.97;;;;;;;2.96;60.93;99506.69;4895362;29;20035;-91
2023/02/01 06:16:55;;;;;;;8.77;5.53;;;;;;;2.94;61.42;99522.06;5120833;23;20054;-95
2023/02/01 06:19:21;;;;;;;9.20;4.50;;;;;;;2.86;60.11;99522.31;4937118;28;20043;-94
2023/02/01 06:21:48;;;;;;;6.18;3.88;;;;;;;2.89;59.60;99512.06;4933836;28;20086;-94
2023/02/01 06:24:28;;;;;;;9.60;4.60;;;;;;;2.86;62.21;99517.00;4951459;28;20069;-96
2023/02/01 06:27:02;;;;;;;9.00;4.53;;;;;;;2.74;61.97;99509.72;5005118;23;20063;-95
2023/02/01 06:29:44;;;;;;;95.00;20.00;;;;;;;2.95;62.01;99534.34;4953346;28;20125;-95
2023/02/01 06:40:03;;;;;;;5.45;3.47;;;;;;;3.07;60.33;99521.16;5041427;23;20080;-96
2023/02/01 06:42:29;;;;;;;7.22;3.47;;;;;;;3.04;60.35;99517.88;4956329;28;20050;-96
2023/02/01 06:45:12;;;;;;;9.18;4.18;;;;;;;3.05;60.40;99502.75;4968848;28;20574;-96
2023/02/01 06:50:18;;;;;;;8.25;4.55;;;;;;;3.19;60.51;99501.59;4987246;28;20043;-96
2023/02/01 06:52:44;;;;;;;15.35;8.55;;;;;;;3.27;60.48;99536.97;4938515;29;20039;-96
2023/02/01 06:55:31;;;;;;;10.95;6.15;;;;;;;3.14;61.06;99521.94;4943898;29;20019;-94
2023/02/01 07:03:21;;;;;;;11.25;5.30;;;;;;;3.23;62.18;99517.94;5014484;23;20149;-95
2023/02/01 07:06:15;;;;;;;6.63;4.93;;;;;;;3.52;60.57;99548.44;4959776;28;20473;-96
2023/02/01 07:08:41;;;;;;;7.20;4.00;;;;;;;3.55;60.81;99529.38;4967457;28;20038;-94
2023/02/01 07:11:11;;;;;;;7.65;4.03;;;;;;;3.75;60.05;99523.84;4946980;29;20031;-96
2023/02/01 07:13:41;;;;;;;6.05;3.40;;;;;;;3.84;58.62;99525.19;4931427;29;20045;-96
2023/02/01 07:16:20;;;;;;;6.93;4.05;;;;;;;3.79;58.77;99518.91;4937235;29;20106;-96
2023/02/01 07:18:47;;;;;;;4.03;2.63;;;;;;;3.97;58.44;99536.75;4956668;28;20043;-96
2023/02/01 07:21:12;;;;;;;6.10;3.65;;;;;;;4.13;59.00;99546.81;4911445;29;20470;-93
2023/02/01 07:23:41;;;;;;;6.30;4.30;;;;;;;4.23;58.62;99535.63;4939934;29;20051;-96
2023/02/01 07:26:27;;;;;;;;;;;;;;;;;;;;;
2023/02/01 07:55:00;;;;;;;6.78;3.58;;;;;;;5.32;55.27;99540.13;4998407;28;20077;-95
2023/02/01 07:57:44;;;;;;;5.43;3.10;;;;;;;5.40;53.93;99531.78;4967234;28;20038;-96
2023/02/01 08:05:57;;;;;;;7.68;3.42;;;;;;;5.45;55.88;99543.38;5789567;23;20255;-96
2023/02/01 08:08:38;;;;;;;5.07;2.90;;;;;;;5.44;53.84;99540.94;4956300;29;20028;-96
2023/02/01 08:11:05;;;;;;;6.28;3.50;;;;;;;5.25;54.33;99534.88;4943863;23;20066;-96
2023/02/01 08:13:35;;;;;;;8.23;4.80;;;;;;;5.37;56.46;99519.69;5086472;23;20121;-95
2023/02/01 08:16:17;;;;;;;12.48;6.28;;;;;;;5.45;55.17;99532.69;4946512;29;20047;-96
2023/02/01 08:30:54;;;;;;;3.63;2.15;;;;;;;5.70;54.80;99560.25;4969000;28;20125;-96
2023/02/01 08:33:55;;;;;;;3.53;2.70;;;;;;;5.79;54.05;99573.03;4944686;29;20050;-96
2023/02/01 08:36:51;;;;;;;3.50;2.13;;;;;;;5.71;53.84;99570.69;4946375;23;20931;-96
2023/02/01 08:39:20;;;;;;;3.35;2.25;;;;;;;5.96;54.50;99575.03;4952068;29;20557;-95
2023/02/01 08:44:36;;;;;;;3.80;2.40;;;;;;;6.16;53.19;99567.44;4924603;29;20068;-96
2023/02/01 08:47:02;;;;;;;5.75;1.95;;;;;;;5.93;53.00;99544.19;4875308;29;20131;-96
2023/02/01 08:50:03;;;;;;;3.38;1.83;;;;;;;5.91;53.27;99534.78;4881509;29;20059;-96
2023/02/01 08:52:31;;;;;;;3.78;2.50;;;;;;;5.97;52.82;99549.94;4903188;29;20063;-96
2023/02/01 08:55:00;;;;;;;5.10;2.90;;;;;;;5.98;53.12;99536.34;4880824;29;20039;-95
2023/02/01 08:57:27;;;;;;;7.10;2.85;;;;;;;6.06;52.57;99560.03;4879856;29;20044;-95
2023/02/01 08:59:55;;;;;;;4.28;2.47;;;;;;;5.79;52.89;99540.13;4873456;29;20068;-95
2023/02/01 09:02:35;;;;;;;4.57;2.70;;;;;;;5.85;53.76;99537.38;4962957;23;20036;-96
2023/02/01 09:05:04;;;;;;;5.57;2.97;;;;;;;5.96;54.96;99538.44;4930321;29;20055;-96
2023/02/01 09:07:30;;;;;;;4.97;2.83;;;;;;;6.14;54.23;99556.16;4944064;29;20090;-94
2023/02/01 09:09:56;;;;;;;4.65;2.40;;;;;;;6.07;52.13;99526.91;4922282;29;20110;-96
2023/02/01 09:12:25;;;;;;;6.28;2.58;;;;;;;6.03;53.52;99538.28;4898701;29;20031;-95
2023/02/01 09:14:50;;;;;;;3.40;2.00;;;;;;;6.07;52.59;99534.91;4918018;29;20040;-96
2023/02/01 09:17:21;;;;;;;7.13;3.63;;;;;;;6.10;52.41;99525.63;4910053;29;20031;-96
2023/02/01 09:19:49;;;;;;;8.93;4.95;;;;;;;6.63;53.12;99562.00;4914896;29;20044;-94
2023/02/01 09:22:51;;;;;;;3.25;2.80;;;;;;;6.47;51.67;99531.47;4928181;29;20390;-96
2023/02/01 09:25:25;;;;;;;11.65;2.80;;;;;;;6.38;52.66;99548.13;4948269;29;20036;-96
2023/02/01 09:27:55;;;;;;;5.43;2.45;;;;;;;6.57;51.73;99546.09;4946864;29;20036;-96
2023/02/01 09:30:31;;;;;;;;;;;;;;;;;;;;;
2023/02/01 09:33:09;;;;;;;7.72;3.05;;;;;;;6.40;52.40;99527.31;4918199;29;20091;-96
2023/02/01 09:35:38;;;;;;;6.88;3.13;;;;;;;6.68;50.89;99531.84;4932367;29;20047;-96
2023/02/01 09:38:11;;;;;;;8.60;2.70;;;;;;;6.70;50.44;99524.38;4924106;29;20024;-96
2023/02/01 09:40:57;;;;;;;7.00;3.22;;;;;;;6.60;51.08;99522.34;4938874;29;20032;-96
2023/02/01 09:43:26;;;;;;;4.53;3.20;;;;;;;6.66;50.65;99545.47;4919543;29;20406;-95
2023/02/01 09:46:23;;;;;;;7.80;2.60;;;;;;;6.77;50.52;99508.22;4940600;29;20036;-95
2023/02/01 09:49:09;;;;;;;4.82;2.50;;;;;;;6.64;51.48;99501.25;4926203;29;20443;-96
2023/02/01 09:51:48;;;;;;;7.70;3.75;;;;;;;6.73;51.16;99504.38;4938663;29;20033;-93
2023/02/01 09:54:29;;;;;;;5.35;3.08;;;;;;;6.56;50.70;99480.28;4926834;29;20051;-95
2023/02/01 09:57:41;;;;;;;7.82;3.83;;;;;;;6.61;50.82;99485.72;4947000;29;20063;-96
2023/02/01 10:00:18;;;;;;;2.50;2.03;;;;;;;6.80;50.45;99497.00;4949546;28;20488;-94
2023/02/01 10:02:44;;;;;;;5.88;2.70;;;;;;;6.80;49.98;99486.31;4946685;29;20042;-95
2023/02/01 10:05:16;;;;;;;3.72;2.17;;;;;;;6.82;50.03;99487.69;4938214;29;20111;-95
2023/02/01 10:08:03;;;;;;;5.30;2.72;;;;;;;6.84;50.45;99498.97;4890686;29;20112;-94
2023/02/01 10:10:31;;;;;;;5.47;2.38;;;;;;;6.74;49.96;99496.09;4887374;29;20072;-95
2023/02/01 10:13:45;;;;;;;2.55;1.67;;;;;;;6.36;50.32;99452.06;4885149;29;20123;-94
2023/02/01 10:16:25;;;;;;;6.63;2.05;;;;;;;6.57;50.42;99457.81;4879011;29;20041;-95
2023/02/01 10:23:20;;;;;;;4.75;2.75;;;;;;;6.99;49.98;99468.16;4864061;29;20033;-94
2023/02/01 10:26:35;;;;;;;5.82;2.08;;;;;;;6.95;50.05;99422.34;4897605;29;20056;-96
2023/02/01 10:29:18;;;;;;;7.55;3.00;;;;;;;7.21;48.48;99442.28;4852494;29;20056;-94
2023/02/01 10:31:44;;;;;;;5.38;2.65;;;;;;;7.22;48.02;99440.41;4889879;29;20028;-95
2023/02/01 10:34:40;;;;;;;7.80;3.92;;;;;;;7.51;48.06;99446.47;4874971;29;20037;-96
2023/02/01 10:40:31;;;;;;;6.00;2.95;;;;;;;7.19;48.69;99406.91;4921230;29;20040;-96
2023/02/01 10:43:02;;;;;;;7.70;2.60;;;;;;;7.06;48.51;99418.75;4929336;29;20106;-96
2023/02/01 10:45:33;;;;;;;5.35;2.85;;;;;;;7.01;48.96;99405.28;4926077;29;20118;-96
2023/02/01 10:49:04;;;;;;;;;;;;;;;;;;;;;
2023/02/01 10:51:56;;;;;;;5.55;2.17;;;;;;;7.27;48.39;99392.28;4846270;29;20112;-96
2023/02/01 10:54:52;;;;;;;;;;;;;;;;;;;;;
2023/02/01 10:57:47;;;;;;;4.95;2.47;;;;;;;7.61;47.28;99394.88;4950152;29;20063;-95
2023/02/01 11:00:49;;;;;;;8.40;3.13;;;;;;;7.58;47.02;99371.28;4929674;29;20126;-95
2023/02/01 11:03:42;;;;;;;7.80;3.00;;;;;;;7.74;47.11;99415.97;4943298;29;20051;-95
2023/02/01 11:07:10;;;;;;;;;;;;;;;;;;;;;
2023/02/01 11:09:50;;;;;;;9.65;3.58;;;;;;;7.76;46.79;99392.41;4939099;29;20075;-96
2023/02/01 11:12:45;;;;;;;6.15;2.50;;;;;;;7.70;46.08;99371.97;4920993;29;20050;-95
2023/02/01 11:15:25;;;;;;;11.00;4.57;;;;;;;7.90;46.56;99371.38;4927589;29;20048;-96
2023/02/01 11:17:58;;;;;;;9.20;3.70;;;;;;;7.83;46.40;99358.19;4939946;29;20501;-93
2023/02/01 11:20:45;;;;;;;6.47;2.50;;;;;;;8.00;47.52;99374.19;4928974;29;20095;-96
2023/02/01 11:23:22;;;;;;;7.10;3.03;;;;;;;8.10;46.58;99368.94;4927363;29;20392;-94
2023/02/01 11:25:57;;;;;;;11.48;3.20;;;;;;;7.98;46.78;99352.19;4911712;29;20020;-96
2023/02/01 11:28:41;;;;;;;;;;;;;;;;;;;;;
2023/02/01 11:31:30;;;;;;;4.13;2.08;;;;;;;8.10;46.58;99355.53;4945786;29;20118;-96
2023/02/01 11:34:26;;;;;;;;;;;;;;;;;;;;;
2023/02/01 11:40:03;;;;;;;5.30;2.95;;;;;;;8.19;45.36;99331.72;4899358;29;20153;-96
2023/02/01 11:43:15;;;;;;;6.30;2.80;;;;;;;8.12;45.25;99312.38;4892155;29;20096;-95
2023/02/01 11:46:03;;;;;;;3.97;2.20;;;;;;;8.19;45.34;99334.41;4908162;29;20044;-96
2023/02/01 11:49:04;;;;;;;5.90;2.28;;;;;;;8.18;44.52;99340.06;4871213;29;20067;-96
2023/02/01 11:51:59;;;;;;;2.60;1.70;;;;;;;8.14;45.17;99334.38;4885379;29;20056;-96
2023/02/01 11:55:01;;;;;;;3.92;1.95;;;;;;;8.11;45.86;99316.09;4875725;29;20317;-95
2023/02/01 11:57:36;;;;;;;3.90;1.88;;;;;;;8.04;45.84;99304.78;4857246;29;20040;-96
2023/02/01 12:00:29;;;;;;;4.00;2.22;;;;;;;8.36;45.70;99320.09;4871947;29;20028;-93
2023/02/01 12:03:29;;;;;;;3.95;1.70;;;;;;;8.38;45.57;99312.59;4894961;29;20041;-96
2023/02/01 12:06:18;;;;;;;5.15;1.65;;;;;;;8.35;45.50;99315.78;4909179;29;20045;-96
2023/02/01 12:09:34;;;;;;;2.28;1.40;;;;;;;8.13;45.79;99294.41;4913174;29;20044;-96
2023/02/01 12:12:42;;;;;;;3.67;1.50;;;;;;;8.25;44.65;99295.06;4870973;29;20108;-96
2023/02/01 12:15:47;;;;;;;4.90;1.95;;;;;;;8.22;44.17;99290.22;4872609;29;20049;-96
2023/02/01 12:18:37;;;;;;;5.00;1.50;;;;;;;8.32;44.30;99310.94;4893061;29;20266;-96
2023/02/01 12:21:17;;;;;;;3.97;1.60;;;;;;;8.41;44.36;99309.44;4926559;29;20036;-96
2023/02/01 12:24:29;;;;;;;4.25;1.48;;;;;;;8.21;45.01;99269.81;4894214;29;20111;-95
2023/02/01 12:27:19;;;;;;;4.53;2.30;;;;;;;8.53;44.07;99314.63;4927110;29;20032;-95
2023/02/01 12:30:29;;;;;;;6.82;1.75;;;;;;;8.58;44.07;99315.47;4893983;29;20091;-96
2023/02/01 12:33:35;;;;;;;3.40;1.67;;;;;;;8.44;44.55;99314.28;4905753;29;20064;-96
2023/02/01 12:36:40;;;;;;;4.85;1.58;;;;;;;8.28;44.89;99298.03;4934227;29;20024;-96
2023/02/01 12:39:30;;;;;;;3.08;1.70;;;;;;;8.19;45.29;99306.78;4911687;29;20046;-96
2023/02/01 12:42:12;;;;;;;3.45;2.20;;;;;;;7.98;45.01;99274.41;4934398;29;20599;-96
2023/02/01 12:44:56;;;;;;;3.88;1.95;;;;;;;8.13;45.08;99297.09;4895563;29;20032;-94
2023/02/01 12:47:43;;;;;;;3.60;2.03;;;;;;;8.10;46.02;99309.13;4930297;29;20062;-96
2023/02/01 12:51:15;;;;;;;;;;;;;;;;;;;;;
2023/02/01 12:53:59;;;;;;;11.90;3.90;;;;;;;8.10;45.23;99317.19;4900167;29;20119;-96
2023/02/01 12:56:55;;;;;;;14.63;6.82;;;;;;;8.04;45.82;99307.47;4913239;29;20403;-96
2023/02/01 12:59:47;;;;;;;11.13;4.50;;;;;;;8.05;45.94;99311.75;4897468;29;20032;-96
2023/02/01 13:02:27;;;;;;;9.70;4.43;;;;;;;7.80;45.72;99285.50;4925705;29;20040;-96
2023/02/01 13:05:24;;;;;;;4.90;2.45;;;;;;;7.88;46.44;99285.84;4922411;29;20060;-96
2023/02/01 13:08:24;;;;;;;4.90;2.30;;;;;;;8.04;46.42;99316.31;4929427;29;20040;-96
2023/02/01 13:11:02;;;;;;;6.32;2.38;;;;;;;7.83;46.49;99299.22;4936133;28;20024;-95
2023/02/01 13:14:05;;;;;;;5.57;2.83;;;;;;;7.95;46.54;99325.88;4916699;29;20087;-96
2023/02/01 13:16:48;;;;;;;6.30;3.30;;;;;;;7.72;46.57;99294.81;4922105;29;20036;-95
2023/02/01 13:19:50;;;;;;;4.00;2.45;;;;;;;7.92;46.40;99318.31;4913961;29;20032;-96
2023/02/01 13:23:28;;;;;;;4.93;2.17;;;;;;;7.78;46.87;99285.78;4929198;29;20047;-96
2023/02/01 13:25:56;;;;;;;5.68;3.20;;;;;;;8.02;46.20;99320.31;4929107;29;20031;-96
2023/02/01 13:29:01;;;;;;;8.00;2.70;;;;;;;7.85;45.75;99298.97;4896357;29;20031;-96
2023/02/01 13:32:05;;;;;;;4.45;1.80;;;;;;;7.96;45.34;99324.00;4912021;29;20043;-95
2023/02/01 13:35:15;;;;;;;5.78;2.80;;;;;;;7.81;45.91;99292.50;4951765;29;20028;-96
2023/02/01 13:38:08;;;;;;;3.88;1.77;;;;;;;8.09;45.36;99323.59;4937488;29;20498;-95
2023/02/01 13:40:40;;;;;;;3.05;2.08;;;;;;;8.04;46.27;99304.78;4923423;29;20593;-93
2023/02/01 13:43:28;;;;;;;4.43;2.25;;;;;;;8.05;46.01;99307.22;4910627;29;20044;-95
2023/02/01 13:45:56;;;;;;;6.30;2.88;;;;;;;8.22;46.22;99301.75;4912180;29;20426;-95
2023/02/01 13:48:32;;;;;;;4.88;2.25;;;;;;;8.30;45.98;99303.97;4911461;29;20045;-96
2023/02/01 13:51:23;;;;;;;6.40;2.20;;;;;;;8.26;45.69;99302.03;4914385;29;20046;-96
2023/02/01 13:53:53;;;;;;;5.60;2.50;;;;;;;8.33;46.01;99301.84;4934081;29;20095;-96
2023/02/01 13:56:55;;;;;;;3.88;1.85;;;;;;;8.26;45.77;99297.50;4940349;29;20040;-96
2023/02/01 14:00:10;;;;;;;2.55;1.60;;;;;;;8.44;44.84;99322.34;4934182;29;20109;-93
2023/02/01 14:03:08;;;;;;;8.20;1.98;;;;;;;8.40;45.74;99305.91;4943060;29;20038;-93
2023/02/01 14:05:36;;;;;;;3.60;1.85;;;;;;;8.50;45.54;99316.75;4896408;29;20077;-95
2023/02/01 14:08:17;;;;;;;6.00;2.45;;;;;;;8.44;45.71;99308.91;4934607;29;20032;-96
2023/02/01 14:11:39;;;;;;;;;;;;;;;;;;;;;
2023/02/01 14:14:34;;;;;;;4.13;1.80;;;;;;;8.52;45.53;99326.44;4947835;29;20120;-95
2023/02/01 14:17:09;;;;;;;3.47;1.73;;;;;;;8.40;45.77;99310.47;4923109;29;20032;-95
2023/02/01 14:19:43;;;;;;;5.45;2.05;;;;;;;8.22;46.14;99279.47;4919359;29;20027;-95
2023/02/01 14:22:37;;;;;;;3.47;1.80;;;;;;;8.36;45.83;99317.41;4921074;29;20038;-96
2023/02/01 14:25:34;;;;;;;6.35;3.05;;;;;;;8.17;46.85;99288.25;4935670;29;20027;-96